Private Wetterstation Nrnberg - Katzwang
Wetterdaten: August 2013
Datum Temp. A. Feuchte A. Luftdruck Regen Wind Richtung Taupunkt Windchill Windben
01.08.2013 24,5 C 59 % 1015 hPa 0,0 l/m 0,0 km/h O-NO 15,3 C 24,5 C 1,0 km/h
02.08.2013 27,8 C 52 % 1013 hPa 0,0 l/m 2,0 km/h W-NW 15,9 C 27,8 C 3,0 km/h
03.08.2013 26,8 C 57 % 1016 hPa 0,5 l/m 3,4 km/h W-NW 17,4 C 26,8 C 4,4 km/h
04.08.2013 23,1 C 70 % 1018 hPa 1,6 l/m 1,7 km/h NO 17,3 C 23,1 C 2,7 km/h
05.08.2013 25,1 C 64 % 1015 hPa 0,0 l/m 1,4 km/h NO 17,5 C 25,1 C 2,4 km/h
06.08.2013 23,8 C 69 % 1012 hPa 9,3 l/m 0,0 km/h W-NW 17,3 C 23,8 C 1,0 km/h
07.08.2013 24,8 C 66 % 1009 hPa 0,5 l/m 8,4 km/h O 17,7 C 24,3 C 12,0 km/h
08.08.2013 20,8 C 73 % 1014 hPa 2,1 l/m 0,3 km/h W-NW 15,7 C 20,8 C 1,4 km/h
09.08.2013 17,5 C 82 % 1018 hPa 11,4 l/m 0,0 km/h W-NW 14,4 C 17,5 C 1,0 km/h
10.08.2013 20,3 C 67 % 1017 hPa 0,0 l/m 1,0 km/h NO 13,8 C 20,3 C 2,0 km/h
11.08.2013 18,1 C 64 % 1016 hPa 0,0 l/m 1,7 km/h W-NW 11,0 C 18,1 C 2,7 km/h
12.08.2013 19,2 C 62 % 1013 hPa 1,0 l/m 0,0 km/h NO 11,6 C 19,2 C 1,0 km/h
13.08.2013 17,6 C 64 % 1017 hPa 1,0 l/m 2,2 km/h W-NW 10,4 C 17,4 C 3,2 km/h
14.08.2013 16,0 C 61 % 1020 hPa 0,0 l/m 2,4 km/h NO 8,2 C 15,8 C 3,4 km/h
15.08.2013 17,0 C 57 % 1020 hPa 0,0 l/m 1,9 km/h W-NW 8,0 C 17,0 C 2,9 km/h
16.08.2013 19,5 C 56 % 1016 hPa 0,0 l/m 0,9 km/h N-NO 9,8 C 19,5 C 1,9 km/h
17.08.2013 22,0 C 58 % 1014 hPa 0,0 l/m 0,0 km/h N-NO 12,5 C 22,0 C 1,0 km/h
18.08.2013 22,1 C 58 % 1014 hPa 0,0 l/m 4,9 km/h W-NW 13,0 C 21,7 C 5,9 km/h
19.08.2013 17,1 C 78 % 1015 hPa 14,0 l/m 3,4 km/h O-NO 13,3 C 17,0 C 7,4 km/h
20.08.2013 16,0 C 75 % 1025 hPa 0,0 l/m 0,0 km/h W-NW 11,5 C 16,0 C 1,0 km/h
21.08.2013 16,8 C 67 % 1022 hPa 0,0 l/m 1,0 km/h O 10,4 C 16,8 C 2,0 km/h
22.08.2013 18,0 C 62 % 1017 hPa 0,0 l/m 2,2 km/h NO 10,2 C 17,9 C 3,2 km/h
23.08.2013 18,2 C 67 % 1015 hPa 0,0 l/m 2,2 km/h O-NO 11,8 C 18,0 C 3,2 km/h
24.08.2013 19,9 C 66 % 1010 hPa 0,0 l/m 2,2 km/h NO 13,0 C 19,7 C 3,2 km/h
25.08.2013 15,6 C 83 % 1008 hPa 26,9 l/m 0,0 km/h N-NO 12,8 C 15,6 C 1,0 km/h
26.08.2013 16,3 C 79 % 1012 hPa 0,0 l/m 0,0 km/h NO 12,7 C 16,3 C 1,0 km/h
27.08.2013 16,0 C 78 % 1012 hPa 0,0 l/m 2,7 km/h NO 12,1 C 15,5 C 3,7 km/h
28.08.2013 15,6 C 78 % 1016 hPa 0,5 l/m 0,0 km/h NO 11,7 C 15,6 C 1,0 km/h
29.08.2013 16,8 C 73 % 1019 hPa 0,0 l/m 1,0 km/h N-NO 11,7 C 16,8 C 2,0 km/h
30.08.2013 17,5 C 67 % 1018 hPa 0,0 l/m 0,5 km/h N 10,8 C 17,5 C 1,5 km/h
31.08.2013 18,1 C 68 % 1018 hPa 0,0 l/m 3,1 km/h W-NW 11,9 C 18,1 C 4,1 km/h
Min-Datum 15.08.13 02.08.13 25.08.13 11 Tage 01.08.13 - 15.08.13 15.08.13 01.08.13
Min-Zeit 06:30 16:10 03:20 - 00:00 - 06:30 06:30 00:00
Minimum 8,0 C 27 % 1008 hPa - 0,0 km/h - 4,2 C 8,0 C 1,0 km/h
Max-Datum 02.08.13 29.08.13 20.08.13 25.08.13 24.08.13 - 06.08.13 02.08.13 06.08.13
Max-Zeit 14:50 09:50 12:30 16:20 13:50 - 13:20 14:50 22:40
Maximum 37,6 C 85 % 1026 hPa 26,9 l/m 25,3 km/h
NO
- 21,3 C 37,6 C 48,9 km/h
W-NW
Durchschnitt 19,6 C 67 % 1016 hPa #68,9 l/m 1,6 km/h NO 12,9 C 19,5 C 2,8 km/h

Durchschnitt Minimum Temp.13,8 C
Durchschnitt Maximum Temp.25,8 C